createdAt,value
2023-04-16T00:00:38.346Z,102371.59
2023-04-16T00:03:05.160Z,102366.34
2023-04-16T00:05:31.898Z,102367.31
2023-04-16T00:07:58.451Z,102367.31
2023-04-16T00:10:25.005Z,102369.31
2023-04-16T00:12:51.536Z,102358.53
2023-04-16T00:15:18.103Z,102361.34
2023-04-16T00:17:45.176Z,102368.56
2023-04-16T00:20:11.885Z,102356.09
2023-04-16T00:22:38.411Z,102360.63
2023-04-16T00:25:05.557Z,102358.06
2023-04-16T00:27:32.205Z,102361.75
2023-04-16T00:29:58.702Z,102353.66
2023-04-16T00:32:25.369Z,102353.81
2023-04-16T00:34:51.874Z,102352.09
2023-04-16T00:37:18.427Z,102356.63
2023-04-16T00:39:44.911Z,102345.00
2023-04-16T00:42:11.519Z,102346.84
2023-04-16T00:44:38.081Z,102353.22
2023-04-16T00:47:04.936Z,102357.75
2023-04-16T00:49:31.853Z,102351.53
2023-04-16T00:51:58.421Z,102349.78
2023-04-16T00:54:25.405Z,102351.63
2023-04-16T00:56:52.045Z,102354.31
2023-04-16T00:59:19.824Z,102360.69
2023-04-16T01:01:46.413Z,102356.31
2023-04-16T01:04:13.230Z,102356.31
2023-04-16T01:06:39.860Z,102352.88
2023-04-16T01:09:06.575Z,102361.81
2023-04-16T01:11:33.226Z,102366.34
2023-04-16T01:13:59.786Z,102360.94
2023-04-16T01:16:26.874Z,102362.78
2023-04-16T01:18:53.590Z,102364.78
2023-04-16T01:21:20.078Z,102365.63
2023-04-16T01:23:46.576Z,102375.53
2023-04-16T01:26:13.097Z,102363.03
2023-04-16T01:28:40.521Z,102366.72
2023-04-16T01:31:07.125Z,102369.41
2023-04-16T01:33:33.685Z,102369.41
2023-04-16T01:36:00.266Z,102370.41
2023-04-16T01:38:26.765Z,102368.72
2023-04-16T01:41:00.254Z,102371.41
2023-04-16T01:43:26.842Z,102367.84
2023-04-16T01:46:11.083Z,102369.69
2023-04-16T01:48:37.741Z,102361.59
2023-04-16T01:51:05.031Z,102362.59
2023-04-16T01:53:31.646Z,102366.28
2023-04-16T01:55:58.120Z,102374.34
2023-04-16T01:58:24.891Z,102362.72
2023-04-16T02:00:51.447Z,102371.78
2023-04-16T02:03:18.702Z,102358.44
2023-04-16T02:05:45.364Z,102365.69
2023-04-16T02:08:11.856Z,102374.75
2023-04-16T02:10:38.391Z,102371.19
2023-04-16T02:13:05.032Z,102367.78
2023-04-16T02:15:31.561Z,102378.53
2023-04-16T02:17:58.215Z,102373.16
2023-04-16T02:20:24.817Z,102379.53
2023-04-16T02:22:51.327Z,102373.41
2023-04-16T02:25:17.957Z,102377.09
2023-04-16T02:27:44.478Z,102376.22
2023-04-16T02:30:11.524Z,102368.28
2023-04-16T02:32:38.034Z,102372.81
2023-04-16T02:35:04.972Z,102372.94
2023-04-16T02:37:31.496Z,102383.72
2023-04-16T02:39:57.987Z,102387.50
2023-04-16T02:42:24.688Z,102386.66
2023-04-16T02:44:51.214Z,102382.25
2023-04-16T02:47:17.730Z,102383.09
2023-04-16T02:49:44.498Z,102389.59
2023-04-16T02:52:11.088Z,102386.91
2023-04-16T02:54:37.660Z,102387.88
2023-04-16T02:57:04.278Z,102388.88
2023-04-16T02:59:30.765Z,102393.41
2023-04-16T03:01:57.336Z,102388.13
2023-04-16T03:04:23.972Z,102396.19
2023-04-16T03:06:50.509Z,102398.03
2023-04-16T03:09:17.328Z,102395.50
2023-04-16T03:11:43.889Z,102398.19
2023-04-16T03:14:10.449Z,102399.16
2023-04-16T03:16:36.976Z,102404.56
2023-04-16T03:19:03.614Z,102404.66
2023-04-16T03:21:30.140Z,102397.56
2023-04-16T03:23:57.153Z,102402.97
2023-04-16T03:26:23.704Z,102400.41
2023-04-16T03:28:50.226Z,102404.06
2023-04-16T03:31:16.976Z,102403.22
2023-04-16T03:33:43.593Z,102408.59
2023-04-16T03:36:10.363Z,102406.88
2023-04-16T03:38:36.916Z,102401.63
2023-04-16T03:41:03.609Z,102405.19
2023-04-16T03:43:30.316Z,102404.44
2023-04-16T03:45:57.175Z,102400.91
2023-04-16T03:48:23.706Z,102400.06
2023-04-16T03:50:50.324Z,102401.03
2023-04-16T03:53:16.957Z,102402.88
2023-04-16T03:55:43.628Z,102409.22
2023-04-16T03:58:10.201Z,102407.47
2023-04-16T04:00:36.880Z,102404.78
2023-04-16T04:03:03.499Z,102409.31
2023-04-16T04:05:30.280Z,102407.63
2023-04-16T04:07:56.898Z,102409.44
2023-04-16T04:10:23.383Z,102407.72
2023-04-16T04:12:49.940Z,102414.09
2023-04-16T04:15:16.551Z,102406.03
2023-04-16T04:17:43.296Z,102410.56
2023-04-16T04:20:10.462Z,102408.84
2023-04-16T04:22:37.028Z,102404.44
2023-04-16T04:25:03.710Z,102413.38
2023-04-16T04:27:30.336Z,102406.25
2023-04-16T04:29:56.946Z,102408.25
2023-04-16T04:32:23.531Z,102424.38
2023-04-16T04:34:50.350Z,102409.94
2023-04-16T04:37:16.878Z,102414.47
2023-04-16T04:39:43.416Z,102412.78
2023-04-16T04:42:10.007Z,102415.47
2023-04-16T04:44:36.592Z,102428.06
2023-04-16T04:47:03.159Z,102422.78
2023-04-16T04:49:30.737Z,102424.47
2023-04-16T04:51:57.252Z,102428.16
2023-04-16T04:54:23.785Z,102424.63
2023-04-16T04:56:52.553Z,102425.59
2023-04-16T04:59:23.119Z,102429.16
2023-04-16T05:01:50.350Z,102428.41
2023-04-16T05:04:17.379Z,102430.97
2023-04-16T05:06:44.224Z,102431.97
2023-04-16T05:09:12.008Z,102435.50
2023-04-16T05:11:39.265Z,102441.59
2023-04-16T05:14:05.848Z,102446.75
2023-04-16T05:16:32.455Z,102447.13
2023-04-16T05:18:59.109Z,102446.63
2023-04-16T05:21:26.404Z,102437.22
2023-04-16T05:23:53.038Z,102440.38
2023-04-16T05:26:19.620Z,102437.31
2023-04-16T05:28:46.437Z,102443.41
2023-04-16T05:31:13.023Z,102441.31
2023-04-16T05:33:39.553Z,102442.91
2023-04-16T05:36:06.472Z,102447.91
2023-04-16T05:38:32.951Z,102451.44
2023-04-16T05:40:59.546Z,102451.19
2023-04-16T05:43:26.019Z,102456.59
2023-04-16T05:45:52.625Z,102455.59
2023-04-16T05:48:20.097Z,102462.81
2023-04-16T05:50:46.702Z,102462.94
2023-04-16T05:53:14.256Z,102455.13
2023-04-16T05:55:40.863Z,102458.06
2023-04-16T05:58:07.408Z,102461.88
2023-04-16T06:00:34.084Z,102457.59
2023-04-16T06:03:00.938Z,102460.44
2023-04-16T06:05:27.893Z,102463.13
2023-04-16T06:07:54.484Z,102464.06
2023-04-16T06:10:21.079Z,102465.91
2023-04-16T06:12:47.791Z,102478.66
2023-04-16T06:15:14.466Z,102475.47
2023-04-16T06:17:41.281Z,102468.63
2023-04-16T06:20:08.265Z,102480.03
2023-04-16T06:22:34.806Z,102474.00
2023-04-16T06:25:01.398Z,102477.78
2023-04-16T06:27:27.960Z,102476.94
2023-04-16T06:29:54.536Z,102479.72
2023-04-16T06:32:21.161Z,102478.78
2023-04-16T06:34:47.720Z,102483.31
2023-04-16T06:37:14.963Z,102483.16
2023-04-16T06:39:41.532Z,102492.09
2023-04-16T06:42:08.126Z,102491.09
2023-04-16T06:44:35.682Z,102488.41
2023-04-16T06:47:02.320Z,102491.00
2023-04-16T06:49:28.974Z,102503.34
2023-04-16T06:51:56.255Z,102503.13
2023-04-16T06:54:22.782Z,102502.13
2023-04-16T06:56:49.292Z,102505.56
2023-04-16T06:59:15.833Z,102504.47
2023-04-16T07:01:42.656Z,102503.50
2023-04-16T07:04:09.406Z,102507.75
2023-04-16T07:06:36.120Z,102505.94
2023-04-16T07:09:02.664Z,102505.66
2023-04-16T07:11:29.342Z,102501.13
2023-04-16T07:13:56.810Z,102504.56
2023-04-16T07:16:23.648Z,102513.50
2023-04-16T07:18:50.361Z,102510.81
2023-04-16T07:21:17.000Z,102510.66
2023-04-16T07:23:43.519Z,102508.84
2023-04-16T07:26:11.536Z,102523.16
2023-04-16T07:28:38.131Z,102515.09
2023-04-16T07:31:04.814Z,102522.19
2023-04-16T07:33:31.322Z,102521.31
2023-04-16T07:35:57.885Z,102524.88
2023-04-16T07:38:24.421Z,102518.63
2023-04-16T07:40:51.350Z,102520.34
2023-04-16T07:43:17.845Z,102530.09
2023-04-16T07:45:44.361Z,102529.16
2023-04-16T07:48:11.222Z,102526.56
2023-04-16T07:50:37.826Z,102534.63
2023-04-16T07:53:05.863Z,102545.53
2023-04-16T07:55:32.434Z,102550.06
2023-04-16T07:57:58.994Z,102541.25
2023-04-16T08:00:26.331Z,102542.25
2023-04-16T08:02:53.013Z,102541.38
2023-04-16T08:05:19.844Z,102542.38
2023-04-16T08:07:46.460Z,102538.81
2023-04-16T08:10:13.142Z,102555.94
2023-04-16T08:12:39.897Z,102548.84
2023-04-16T08:15:07.425Z,102557.06
2023-04-16T08:17:34.876Z,102558.00
2023-04-16T08:20:01.770Z,102558.00
2023-04-16T08:22:28.389Z,102561.56
2023-04-16T08:24:55.100Z,102558.16
2023-04-16T08:27:21.615Z,102566.22
2023-04-16T08:29:48.622Z,102569.03
2023-04-16T08:32:15.247Z,102569.88
2023-04-16T08:34:41.971Z,102570.84
2023-04-16T08:37:08.776Z,102567.31
2023-04-16T08:39:35.524Z,102569.13
2023-04-16T08:42:04.670Z,102570.13
2023-04-16T08:44:33.758Z,102575.50
2023-04-16T08:47:02.279Z,102578.06
2023-04-16T08:49:29.487Z,102579.81
2023-04-16T08:51:57.048Z,102585.03
2023-04-16T08:54:43.217Z,102586.75
2023-04-16T08:57:12.555Z,102589.44
2023-04-16T08:59:40.385Z,102593.84
2023-04-16T09:02:07.389Z,102590.19
2023-04-16T09:04:34.455Z,102599.13
2023-04-16T09:07:04.559Z,102607.06
2023-04-16T09:09:33.436Z,102600.69
2023-04-16T09:12:01.336Z,102603.28
2023-04-16T09:14:28.730Z,102598.75
2023-04-16T09:16:56.127Z,102601.19
2023-04-16T09:19:23.705Z,102602.91
2023-04-16T09:21:51.105Z,102596.44
2023-04-16T09:24:18.577Z,102599.97
2023-04-16T09:26:45.418Z,102603.38
2023-04-16T09:29:12.259Z,102601.53
2023-04-16T09:31:38.934Z,102603.13
2023-04-16T09:34:08.502Z,102606.69
2023-04-16T09:36:36.298Z,102611.09
2023-04-16T09:39:03.922Z,102612.69
2023-04-16T09:41:32.716Z,102620.63
2023-04-16T09:44:04.609Z,102622.47
2023-04-16T09:46:35.615Z,102623.44
2023-04-16T09:49:19.992Z,102629.81
2023-04-16T09:51:49.661Z,102626.28
2023-04-16T09:54:16.491Z,102627.13
2023-04-16T09:56:44.776Z,102631.75
2023-04-16T09:59:21.749Z,102626.50
2023-04-16T10:01:49.949Z,102638.00
2023-04-16T10:04:17.038Z,102637.13
2023-04-16T10:06:44.120Z,102626.38
2023-04-16T10:09:11.109Z,102635.31
2023-04-16T10:11:37.917Z,102633.50
2023-04-16T10:14:04.522Z,102633.50
2023-04-16T10:16:31.312Z,102630.66
2023-04-16T10:18:59.130Z,102632.38
2023-04-16T10:21:33.579Z,102638.59
2023-04-16T10:24:00.606Z,102642.16
2023-04-16T10:26:29.424Z,102637.66
2023-04-16T10:28:58.358Z,102646.56
2023-04-16T10:31:26.261Z,102642.03
2023-04-16T10:33:53.280Z,102644.75
2023-04-16T10:36:29.099Z,102645.59
2023-04-16T10:39:00.666Z,102644.59
2023-04-16T10:41:27.673Z,102651.59
2023-04-16T10:44:05.850Z,102639.97
2023-04-16T10:46:43.605Z,102638.13
2023-04-16T10:49:19.235Z,102640.94
2023-04-16T10:51:57.028Z,102649.13
2023-04-16T10:54:28.808Z,102641.19
2023-04-16T10:57:02.226Z,102642.16
2023-04-16T10:59:32.174Z,102654.75
2023-04-16T11:02:01.536Z,102649.38
2023-04-16T11:04:33.232Z,102653.91
2023-04-16T11:07:13.984Z,102653.06
2023-04-16T11:10:05.048Z,102656.72
2023-04-16T11:12:42.434Z,102650.34
2023-04-16T11:15:13.410Z,102647.53
2023-04-16T11:17:45.705Z,102651.22
2023-04-16T11:20:26.207Z,102646.69
2023-04-16T11:22:56.653Z,102651.09
2023-04-16T11:25:25.083Z,102654.66
2023-04-16T11:27:52.594Z,102651.09
2023-04-16T11:30:28.367Z,102652.81
2023-04-16T11:32:55.320Z,102651.97
2023-04-16T11:35:22.051Z,102651.81
2023-04-16T11:37:48.836Z,102652.69
2023-04-16T11:40:15.529Z,102659.66
2023-04-16T11:42:42.783Z,102656.00
2023-04-16T11:45:11.281Z,102661.38
2023-04-16T11:47:56.837Z,102658.69
2023-04-16T11:50:25.681Z,102654.16
2023-04-16T11:52:54.241Z,102661.22
2023-04-16T11:55:21.670Z,102653.16
2023-04-16T11:57:48.753Z,102662.13
2023-04-16T12:00:15.989Z,102659.44
2023-04-16T12:02:50.940Z,102658.44
2023-04-16T12:05:35.205Z,102668.34
2023-04-16T12:08:03.833Z,102663.59
2023-04-16T12:10:32.287Z,102667.13
2023-04-16T12:13:12.197Z,102667.97
2023-04-16T12:15:49.666Z,102669.69
2023-04-16T12:18:21.370Z,102664.31
2023-04-16T12:20:47.997Z,102673.59
2023-04-16T12:23:28.995Z,102665.06
2023-04-16T12:25:59.602Z,102677.88
2023-04-16T12:28:38.378Z,102673.72
2023-04-16T12:31:05.834Z,102664.91
2023-04-16T12:33:32.680Z,102664.91
2023-04-16T12:35:59.294Z,102666.50
2023-04-16T12:38:26.890Z,102658.19
2023-04-16T12:40:57.002Z,102661.50
2023-04-16T12:43:24.093Z,102665.66
2023-04-16T12:45:50.639Z,102656.38
2023-04-16T12:48:17.193Z,102655.00
2023-04-16T12:50:44.376Z,102666.13
2023-04-16T12:53:11.686Z,102666.75
2023-04-16T12:55:38.329Z,102667.22
2023-04-16T12:58:04.959Z,102664.28
2023-04-16T13:00:31.542Z,102665.00
2023-04-16T13:02:58.177Z,102668.44
2023-04-16T13:05:24.853Z,102659.38
2023-04-16T13:07:51.482Z,102670.00
2023-04-16T13:10:18.102Z,102671.00
2023-04-16T13:12:46.525Z,102669.16
2023-04-16T13:15:13.075Z,102670.00
2023-04-16T13:17:39.603Z,102666.47
2023-04-16T13:20:06.586Z,102667.31
2023-04-16T13:22:33.639Z,102664.63
2023-04-16T13:25:00.398Z,102670.00
2023-04-16T13:27:26.939Z,102665.47
2023-04-16T13:29:53.728Z,102663.69
2023-04-16T13:32:20.398Z,102666.22
2023-04-16T13:34:47.155Z,102664.38
2023-04-16T13:37:13.883Z,102666.09
2023-04-16T13:39:40.605Z,102663.28
2023-04-16T13:42:07.194Z,102662.31
2023-04-16T13:44:33.889Z,102659.59
2023-04-16T13:47:00.798Z,102659.50
2023-04-16T13:49:27.381Z,102653.16
2023-04-16T13:51:53.912Z,102652.28
2023-04-16T13:54:20.528Z,102658.53
2023-04-16T13:56:47.078Z,102657.66
2023-04-16T13:59:15.619Z,102655.97
2023-04-16T14:01:42.310Z,102651.41
2023-04-16T14:04:08.879Z,102664.88
2023-04-16T14:06:35.502Z,102661.34
2023-04-16T14:09:02.201Z,102661.34
2023-04-16T14:11:28.969Z,102656.91
2023-04-16T14:13:55.588Z,102658.75
2023-04-16T14:16:22.231Z,102660.59
2023-04-16T14:18:48.787Z,102650.78
2023-04-16T14:21:15.662Z,102658.88
2023-04-16T14:23:42.286Z,102651.78
2023-04-16T14:26:08.892Z,102664.38
2023-04-16T14:28:35.799Z,102657.28
2023-04-16T14:31:02.523Z,102662.69
2023-04-16T14:33:29.260Z,102672.59
2023-04-16T14:35:55.951Z,102665.47
2023-04-16T14:38:22.513Z,102665.47
2023-04-16T14:40:49.055Z,102665.47
2023-04-16T14:43:15.666Z,102670.00
2023-04-16T14:45:42.300Z,102669.16
2023-04-16T14:48:08.854Z,102672.72
2023-04-16T14:50:38.938Z,102668.19
2023-04-16T14:53:05.972Z,102660.97
2023-04-16T14:55:32.813Z,102659.13
2023-04-16T14:57:59.911Z,102662.69
2023-04-16T15:00:27.358Z,102661.56
2023-04-16T15:02:54.766Z,102664.16
2023-04-16T15:05:22.143Z,102652.41
2023-04-16T15:07:48.670Z,102663.06
2023-04-16T15:10:15.499Z,102663.94
2023-04-16T15:12:42.183Z,102669.19
2023-04-16T15:15:09.539Z,102656.56
2023-04-16T15:17:36.381Z,102672.59
2023-04-16T15:20:05.923Z,102668.94
2023-04-16T15:22:32.549Z,102676.78
2023-04-16T15:24:59.029Z,102668.69
2023-04-16T15:27:25.868Z,102669.53
2023-04-16T15:29:53.924Z,102667.72
2023-04-16T15:32:20.725Z,102669.41
2023-04-16T15:34:47.288Z,102666.56
2023-04-16T15:37:13.909Z,102665.72
2023-04-16T15:39:40.786Z,102671.13
2023-04-16T15:42:08.106Z,102673.09
2023-04-16T15:44:34.779Z,102668.81
2023-04-16T15:47:01.306Z,102664.41
2023-04-16T15:49:27.995Z,102665.41
2023-04-16T15:51:55.526Z,102660.13
2023-04-16T15:54:22.422Z,102656.56
2023-04-16T15:56:49.083Z,102662.69
2023-04-16T15:59:16.050Z,102657.31
2023-04-16T16:01:42.582Z,102658.16
2023-04-16T16:04:09.586Z,102655.47
2023-04-16T16:06:38.074Z,102650.94
2023-04-16T16:09:04.995Z,102654.47
2023-04-16T16:11:32.628Z,102651.78
2023-04-16T16:14:01.367Z,102652.63
2023-04-16T16:16:28.581Z,102647.25
2023-04-16T16:18:55.317Z,102653.50
2023-04-16T16:21:22.034Z,102648.25
2023-04-16T16:23:48.599Z,102656.19
2023-04-16T16:26:15.157Z,102658.16
2023-04-16T16:28:43.776Z,102653.72
2023-04-16T16:31:12.167Z,102661.72
2023-04-16T16:33:40.396Z,102659.03
2023-04-16T16:36:10.905Z,102659.41
2023-04-16T16:38:37.999Z,102657.66
2023-04-16T16:41:04.594Z,102649.59
2023-04-16T16:43:31.390Z,102657.66
2023-04-16T16:45:57.933Z,102663.06
2023-04-16T16:48:24.500Z,102660.34
2023-04-16T16:50:50.996Z,102655.97
2023-04-16T16:53:17.602Z,102655.97
2023-04-16T16:55:44.213Z,102650.56
2023-04-16T16:58:11.206Z,102659.59
2023-04-16T17:00:38.104Z,102658.75
2023-04-16T17:03:04.771Z,102657.91
2023-04-16T17:05:31.664Z,102663.28
2023-04-16T17:07:58.697Z,102664.25
2023-04-16T17:10:25.353Z,102667.81
2023-04-16T17:12:51.938Z,102664.38
2023-04-16T17:15:21.391Z,102664.38
2023-04-16T17:17:48.560Z,102663.53
2023-04-16T17:20:15.722Z,102667.22
2023-04-16T17:22:42.637Z,102661.84
2023-04-16T17:25:09.514Z,102669.06
2023-04-16T17:27:36.247Z,102673.56
2023-04-16T17:30:04.964Z,102681.78
2023-04-16T17:32:32.714Z,102683.63
2023-04-16T17:35:00.454Z,102685.31
2023-04-16T17:37:27.380Z,102681.91
2023-04-16T17:39:53.963Z,102681.91
2023-04-16T17:42:20.606Z,102682.78
2023-04-16T17:44:47.304Z,102680.94
2023-04-16T17:47:13.831Z,102686.19
2023-04-16T17:49:40.600Z,102687.03
2023-04-16T17:52:07.280Z,102687.91
2023-04-16T17:54:33.816Z,102694.16
2023-04-16T17:57:00.595Z,102698.56
2023-04-16T17:59:27.481Z,102692.31
2023-04-16T18:04:21.528Z,102697.56
2023-04-16T18:06:48.429Z,102699.28
2023-04-16T18:09:15.460Z,102699.28
2023-04-16T18:11:42.103Z,102706.38
2023-04-16T18:14:10.008Z,102709.94
2023-04-16T18:16:36.781Z,102708.09
2023-04-16T18:19:03.347Z,102714.38
2023-04-16T18:21:30.493Z,102709.84
2023-04-16T18:23:57.687Z,102714.22
2023-04-16T18:26:25.324Z,102716.94
2023-04-16T18:28:52.146Z,102716.94
2023-04-16T18:31:21.168Z,102722.31
2023-04-16T18:33:56.822Z,102734.81
2023-04-16T18:36:24.453Z,102725.91
2023-04-16T18:39:01.127Z,102738.47
2023-04-16T18:41:28.681Z,102734.81
2023-04-16T18:43:55.392Z,102740.22
2023-04-16T18:46:21.971Z,102740.22
2023-04-16T18:48:48.667Z,102745.59
2023-04-16T18:51:16.579Z,102741.91
2023-04-16T18:53:45.390Z,102741.91
2023-04-16T18:56:12.241Z,102748.28
2023-04-16T18:58:38.870Z,102746.69
2023-04-16T19:01:07.820Z,102748.63
2023-04-16T19:03:34.699Z,102745.19
2023-04-16T19:06:01.592Z,102751.66
2023-04-16T19:08:28.164Z,102758.91
2023-04-16T19:10:54.736Z,102766.25
2023-04-16T19:13:21.259Z,102762.81
2023-04-16T19:15:47.931Z,102763.81
2023-04-16T19:18:14.555Z,102770.28
2023-04-16T19:20:41.129Z,102770.41
2023-04-16T19:23:09.193Z,102770.66
2023-04-16T19:25:38.772Z,102770.03
2023-04-16T19:28:05.457Z,102769.31
2023-04-16T19:30:32.028Z,102771.25
2023-04-16T19:32:58.793Z,102774.94
2023-04-16T19:35:25.711Z,102769.78
2023-04-16T19:37:52.251Z,102781.53
2023-04-16T19:40:18.942Z,102782.41
2023-04-16T19:42:45.633Z,102785.22
2023-04-16T19:45:12.333Z,102774.44
2023-04-16T19:47:39.059Z,102779.06
2023-04-16T19:50:06.429Z,102779.06
2023-04-16T19:52:38.610Z,102783.59
2023-04-16T19:55:06.629Z,102778.34
2023-04-16T19:57:33.328Z,102785.69
2023-04-16T20:00:00.107Z,102780.44
2023-04-16T20:02:26.937Z,102776.97
2023-04-16T20:04:53.626Z,102776.25
2023-04-16T20:07:20.550Z,102775.41
2023-04-16T20:09:47.233Z,102775.63
2023-04-16T20:12:14.399Z,102775.78
2023-04-16T20:14:41.947Z,102769.78
2023-04-16T20:17:10.075Z,102782.47
2023-04-16T20:19:40.351Z,102773.78
2023-04-16T20:22:07.045Z,102775.75
2023-04-16T20:24:34.329Z,102769.59
2023-04-16T20:27:01.731Z,102777.81
2023-04-16T20:29:28.402Z,102771.69
2023-04-16T20:31:54.950Z,102763.88
2023-04-16T20:34:21.466Z,102763.09
2023-04-16T20:36:48.122Z,102761.41
2023-04-16T20:39:14.753Z,102762.47
2023-04-16T20:41:44.136Z,102764.44
2023-04-16T20:44:18.037Z,102762.00
2023-04-16T20:46:49.407Z,102754.03
2023-04-16T20:49:17.600Z,102762.22
2023-04-16T20:51:44.221Z,102768.72
2023-04-16T20:54:10.958Z,102764.28
2023-04-16T20:56:37.459Z,102757.38
2023-04-16T20:59:04.032Z,102759.34
2023-04-16T21:01:30.722Z,102757.75
2023-04-16T21:03:57.638Z,102752.50
2023-04-16T21:06:24.353Z,102751.72
2023-04-16T21:08:51.130Z,102754.56
2023-04-16T21:11:17.634Z,102750.25
2023-04-16T21:13:44.288Z,102747.69
2023-04-16T21:16:12.374Z,102753.19
2023-04-16T21:18:39.132Z,102759.53
2023-04-16T21:21:05.946Z,102758.81
2023-04-16T21:23:32.588Z,102762.56
2023-04-16T21:25:59.119Z,102760.00
2023-04-16T21:28:25.787Z,102756.56
2023-04-16T21:30:53.072Z,102753.88
2023-04-16T21:33:19.564Z,102757.66
2023-04-16T21:35:51.236Z,102761.44
2023-04-16T21:38:17.849Z,102758.88
2023-04-16T21:40:50.665Z,102761.66
2023-04-16T21:43:17.889Z,102762.63
2023-04-16T21:45:44.486Z,102764.56
2023-04-16T21:48:11.103Z,102760.28
2023-04-16T21:50:38.091Z,102761.28
2023-04-16T21:53:06.415Z,102768.47
2023-04-16T21:55:34.652Z,102763.34
2023-04-16T21:58:01.683Z,102761.59
2023-04-16T22:00:28.386Z,102759.03
2023-04-16T22:03:00.111Z,102766.25
2023-04-16T22:05:26.924Z,102760.09
2023-04-16T22:07:53.456Z,102754.84
2023-04-16T22:10:20.311Z,102754.97
2023-04-16T22:12:46.858Z,102754.97
2023-04-16T22:15:13.911Z,102747.88
2023-04-16T22:17:40.931Z,102748.84
2023-04-16T22:20:14.645Z,102747.25
2023-04-16T22:22:41.842Z,102750.03
2023-04-16T22:25:08.592Z,102749.81
2023-04-16T22:27:35.425Z,102738.44
2023-04-16T22:30:02.872Z,102741.25
2023-04-16T22:32:30.320Z,102741.34
2023-04-16T22:34:57.116Z,102746.84
2023-04-16T22:37:23.615Z,102741.56
2023-04-16T22:39:50.265Z,102743.53
2023-04-16T22:42:16.776Z,102745.34
2023-04-16T22:44:43.279Z,102742.69
2023-04-16T22:47:09.822Z,102751.72
2023-04-16T22:49:36.355Z,102748.25
2023-04-16T22:52:03.058Z,102746.56
2023-04-16T22:54:30.232Z,102748.38
2023-04-16T22:56:57.559Z,102755.69
2023-04-16T22:59:24.625Z,102751.16
2023-04-16T23:01:52.092Z,102745.06
2023-04-16T23:04:18.821Z,102751.41
2023-04-16T23:06:46.390Z,102757.75
2023-04-16T23:09:13.165Z,102754.19
2023-04-16T23:11:39.960Z,102743.44
2023-04-16T23:14:06.490Z,102747.13
2023-04-16T23:16:33.043Z,102746.25
2023-04-16T23:18:59.651Z,102756.25
2023-04-16T23:21:26.212Z,102753.56
2023-04-16T23:23:52.736Z,102750.16
2023-04-16T23:26:19.246Z,102755.50
2023-04-16T23:28:45.819Z,102760.88
2023-04-16T23:31:12.381Z,102764.56
2023-04-16T23:33:38.961Z,102758.28
2023-04-16T23:36:08.151Z,102761.09
2023-04-16T23:38:34.664Z,102762.09
2023-04-16T23:41:01.161Z,102763.03
2023-04-16T23:43:27.703Z,102767.50
2023-04-16T23:45:54.273Z,102768.41
2023-04-16T23:48:20.963Z,102764.09
2023-04-16T23:50:47.522Z,102770.31
2023-04-16T23:53:14.065Z,102769.59
2023-04-16T23:55:40.599Z,102770.53
2023-04-16T23:58:07.402Z,102769.69
